createdAt,value
2019-04-23T00:00:26.499Z,96035.42
2019-04-23T00:02:58.957Z,96051.14
2019-04-23T00:08:07.863Z,96045.33
2019-04-23T00:10:36.645Z,96039.72
2019-04-23T00:12:59.388Z,96036.05
2019-04-23T00:15:54.733Z,96036.05
2019-04-23T00:18:23.388Z,96032.77
2019-04-23T00:20:46.002Z,96031.02
2019-04-23T00:23:22.500Z,96030.25
2019-04-23T00:25:56.167Z,96021.73
2019-04-23T00:28:22.978Z,96020.59
2019-04-23T00:30:56.737Z,96016.32
2019-04-23T00:33:25.637Z,96015.19
2019-04-23T00:36:05.270Z,96021.55
2019-04-23T00:41:04.247Z,96011.70
2019-04-23T00:48:28.015Z,96001.22
2019-04-23T00:50:53.069Z,95998.11
2019-04-23T00:53:17.798Z,95992.89
2019-04-23T00:55:47.846Z,95998.90
2019-04-23T00:58:25.050Z,95988.08
2019-04-23T01:00:56.132Z,95979.20
2019-04-23T01:03:20.430Z,95988.67
2019-04-23T01:05:47.052Z,95985.38
2019-04-23T01:08:22.073Z,95986.91
2019-04-23T01:13:36.737Z,95980.17
2019-04-23T01:18:48.574Z,95982.45
2019-04-23T01:20:54.073Z,95975.69
2019-04-23T01:23:42.383Z,95977.04
2019-04-23T01:26:23.934Z,95975.50
2019-04-23T01:29:01.715Z,95971.47
2019-04-23T01:31:34.846Z,95978.98
2019-04-23T01:34:11.141Z,95974.72
2019-04-23T01:39:17.772Z,95961.19
2019-04-23T01:44:27.449Z,95955.59
2019-04-23T01:46:49.271Z,95962.35
2019-04-23T01:49:20.727Z,95954.02
2019-04-23T01:54:23.621Z,95949.59
2019-04-23T01:56:47.232Z,95948.42
2019-04-23T02:01:50.075Z,95945.91
2019-04-23T02:04:22.943Z,95939.33
2019-04-23T02:06:55.981Z,95943.97
2019-04-23T02:09:17.281Z,95946.67
2019-04-23T02:11:53.602Z,95942.62
2019-04-23T02:14:26.750Z,95935.47
2019-04-23T02:16:50.279Z,95935.26
2019-04-23T02:19:24.048Z,95931.23
2019-04-23T02:24:49.253Z,95934.88
2019-04-23T02:27:25.438Z,95927.34
2019-04-23T02:32:52.573Z,95916.92
2019-04-23T02:35:09.705Z,95916.14
2019-04-23T02:37:36.395Z,95919.22
2019-04-23T02:42:40.938Z,95918.46
2019-04-23T02:44:56.402Z,95919.41
2019-04-23T02:47:32.618Z,95908.00
2019-04-23T02:50:33.201Z,95904.73
2019-04-23T02:55:17.732Z,95899.88
2019-04-23T02:57:41.516Z,95898.75
2019-04-23T03:02:49.861Z,95885.98
2019-04-23T03:07:49.616Z,95881.95
2019-04-23T03:10:15.987Z,95877.50
2019-04-23T03:16:01.006Z,95887.15
2019-04-23T03:18:47.729Z,95879.23
2019-04-23T03:21:51.966Z,95884.42
2019-04-23T03:24:34.635Z,95877.85
2019-04-23T03:27:12.867Z,95878.64
2019-04-23T03:29:35.493Z,95873.23
2019-04-23T03:39:30.211Z,95863.15
2019-04-23T03:41:54.371Z,95860.47
2019-04-23T03:44:29.786Z,95866.05
2019-04-23T03:46:51.478Z,95860.84
2019-04-23T03:49:19.490Z,95869.34
2019-04-23T03:52:21.296Z,95875.13
2019-04-23T03:54:45.698Z,95871.07
2019-04-23T03:59:47.494Z,95867.80
2019-04-23T04:04:36.654Z,95881.31
2019-04-23T04:12:12.391Z,95867.02
2019-04-23T04:14:47.418Z,95865.66
2019-04-23T04:25:03.263Z,95868.96
2019-04-23T04:27:43.459Z,95868.56
2019-04-23T04:30:00.865Z,95868.36
2019-04-23T04:32:33.448Z,95865.66
2019-04-23T04:40:05.130Z,95866.05
2019-04-23T04:47:44.498Z,95870.87
2019-04-23T04:50:19.252Z,95871.08
2019-04-23T04:55:23.578Z,95869.34
2019-04-23T04:57:52.692Z,95867.98
2019-04-23T05:03:12.607Z,95868.74
2019-04-23T05:05:58.276Z,95868.96
2019-04-23T05:07:48.214Z,95870.31
2019-04-23T05:10:34.624Z,95866.26
2019-04-23T05:13:35.292Z,95868.58
2019-04-23T05:15:58.649Z,95865.47
2019-04-23T05:21:26.909Z,95867.97
2019-04-23T05:24:02.893Z,95868.17
2019-04-23T05:26:25.172Z,95864.50
2019-04-23T05:29:01.884Z,95863.34
2019-04-23T05:31:24.742Z,95867.39
2019-04-23T05:34:09.176Z,95868.17
2019-04-23T05:36:45.415Z,95867.98
2019-04-23T05:39:26.859Z,95867.80
2019-04-23T05:46:48.639Z,95875.13
2019-04-23T05:51:52.652Z,95882.48
2019-04-23T05:54:24.361Z,95880.16
2019-04-23T05:56:44.338Z,95880.55
2019-04-23T06:01:54.128Z,95876.31
2019-04-23T06:09:53.514Z,95890.42
2019-04-23T06:17:21.075Z,95874.41
2019-04-23T06:22:43.766Z,95876.52
2019-04-23T06:25:21.527Z,95873.25
2019-04-23T06:27:39.670Z,95878.66
2019-04-23T06:30:08.750Z,95877.87
2019-04-23T06:32:37.596Z,95877.88
2019-04-23T06:35:12.008Z,95877.70
2019-04-23T06:40:14.482Z,95872.69
2019-04-23T06:43:06.058Z,95884.29
2019-04-23T06:45:32.561Z,95879.06
2019-04-23T06:48:09.172Z,95876.19
2019-04-23T06:50:34.629Z,95875.62
2019-04-23T06:52:58.872Z,95876.56
2019-04-23T06:55:37.424Z,95876.00
2019-04-23T06:58:08.369Z,95875.77
2019-04-23T07:03:23.240Z,95865.77
2019-04-23T07:13:53.424Z,95868.70
2019-04-23T07:16:12.763Z,95874.11
2019-04-23T07:18:41.215Z,95873.51
2019-04-23T07:21:15.454Z,95870.63
2019-04-23T07:23:45.426Z,95869.45
2019-04-23T07:26:23.217Z,95863.09
2019-04-23T07:31:35.196Z,95854.78
2019-04-23T07:34:15.770Z,95857.29
2019-04-23T07:36:47.844Z,95857.69
2019-04-23T07:39:47.293Z,95858.08
2019-04-23T07:45:02.123Z,95861.18
2019-04-23T07:48:01.500Z,95861.77
2019-04-23T07:50:32.875Z,95865.81
2019-04-23T07:53:03.603Z,95854.80
2019-04-23T07:55:25.568Z,95859.25
2019-04-23T07:58:04.146Z,95856.76
2019-04-23T08:00:32.466Z,95862.55
2019-04-23T08:02:58.280Z,95861.57
2019-04-23T08:05:22.503Z,95863.50
2019-04-23T08:07:54.274Z,95868.16
2019-04-23T08:16:07.034Z,95869.50
2019-04-23T08:18:49.302Z,95869.13
2019-04-23T08:21:06.764Z,95870.47
2019-04-23T08:31:40.283Z,95869.91
2019-04-23T08:34:17.069Z,95873.39
2019-04-23T08:39:02.187Z,95877.45
2019-04-23T08:41:46.022Z,95877.26
2019-04-23T08:46:56.876Z,95870.29
2019-04-23T08:52:05.473Z,95865.67
2019-04-23T08:54:35.723Z,95863.72
2019-04-23T08:56:57.087Z,95859.88
2019-04-23T08:59:32.778Z,95851.75
2019-04-23T09:02:07.209Z,95862.20
2019-04-23T09:04:23.659Z,95859.66
2019-04-23T09:06:57.149Z,95854.27
2019-04-23T09:09:33.030Z,95856.77
2019-04-23T09:14:08.925Z,95854.45
2019-04-23T09:16:51.048Z,95855.80
2019-04-23T09:19:28.511Z,95849.22
2019-04-23T09:22:01.996Z,95852.53
2019-04-23T09:24:20.041Z,95850.39
2019-04-23T09:26:51.754Z,95847.50
2019-04-23T09:29:30.534Z,95851.54
2019-04-23T09:32:15.163Z,95846.13
2019-04-23T09:34:54.136Z,95848.66
2019-04-23T09:40:22.362Z,95856.19
2019-04-23T09:43:00.469Z,95850.39
2019-04-23T09:45:48.811Z,95850.00
2019-04-23T09:48:11.595Z,95844.97
2019-04-23T09:50:52.484Z,95843.42
2019-04-23T09:55:59.740Z,95839.74
2019-04-23T09:58:18.289Z,95842.66
2019-04-23T10:03:43.081Z,95834.72
2019-04-23T10:06:05.975Z,95834.93
2019-04-23T10:08:35.542Z,95832.59
2019-04-23T10:10:59.750Z,95834.34
2019-04-23T10:13:29.680Z,95825.81
2019-04-23T10:15:59.982Z,95826.98
2019-04-23T10:21:16.006Z,95825.06
2019-04-23T10:23:45.472Z,95823.11
2019-04-23T10:26:14.263Z,95817.91
2019-04-23T10:29:02.338Z,95819.83
2019-04-23T10:31:31.444Z,95815.56
2019-04-23T10:34:01.955Z,95816.35
2019-04-23T10:36:32.111Z,95810.54
2019-04-23T10:42:33.900Z,95809.59
2019-04-23T10:55:25.290Z,95802.80
2019-04-23T10:58:17.410Z,95796.81
2019-04-23T11:03:31.806Z,95793.34
2019-04-23T11:05:50.985Z,95787.13
2019-04-23T11:08:15.688Z,95791.20
2019-04-23T11:10:46.553Z,95794.69
2019-04-23T11:18:45.018Z,95792.55
2019-04-23T11:24:04.835Z,95799.52
2019-04-23T11:26:44.342Z,95799.70
2019-04-23T11:29:19.309Z,95793.90
2019-04-23T11:34:25.792Z,95796.42
2019-04-23T11:39:12.728Z,95792.91
2019-04-23T11:49:52.521Z,95781.34
2019-04-23T11:50:46.443Z,95805.12
2019-04-23T11:52:08.313Z,95800.85
2019-04-23T11:54:31.019Z,95800.67
2019-04-23T11:59:35.868Z,95812.69
2019-04-23T12:02:29.354Z,95803.95
2019-04-23T12:07:57.454Z,95810.95
2019-04-23T12:13:21.241Z,95809.59
2019-04-23T12:15:46.368Z,95813.05
2019-04-23T12:18:24.022Z,95812.66
2019-04-23T12:20:49.084Z,95813.06
2019-04-23T12:28:40.833Z,95815.77
2019-04-23T12:31:10.095Z,95822.16
2019-04-23T12:33:47.151Z,95817.13
2019-04-23T12:36:34.025Z,95814.21
2019-04-23T12:38:55.258Z,95820.20
2019-04-23T12:41:27.118Z,95811.70
2019-04-23T12:43:54.527Z,95808.41
2019-04-23T12:46:26.003Z,95816.34
2019-04-23T12:48:58.744Z,95808.22
2019-04-23T12:51:29.809Z,95810.53
2019-04-23T12:53:48.378Z,95807.63
2019-04-23T12:56:30.284Z,95801.05
2019-04-23T12:58:46.709Z,95798.73
2019-04-23T13:01:25.674Z,95795.06
2019-04-23T13:04:11.605Z,95796.02
2019-04-23T13:06:36.529Z,95798.16
2019-04-23T13:14:07.155Z,95782.48
2019-04-23T13:19:27.425Z,95789.25
2019-04-23T13:24:32.850Z,95782.09
2019-04-23T13:29:50.808Z,95782.30
2019-04-23T13:32:37.665Z,95775.14
2019-04-23T13:35:19.843Z,95774.92
2019-04-23T13:37:46.361Z,95777.24
2019-04-23T13:40:09.180Z,95777.45
2019-04-23T13:45:19.631Z,95776.28
2019-04-23T13:47:46.758Z,95777.45
2019-04-23T13:50:20.262Z,95775.91
2019-04-23T13:57:59.361Z,95780.36
2019-04-23T14:00:14.197Z,95777.45
2019-04-23T14:02:52.665Z,95777.45
2019-04-23T14:05:12.966Z,95782.30
2019-04-23T14:07:50.042Z,95778.63
2019-04-23T14:10:20.090Z,95785.19
2019-04-23T14:13:03.404Z,95778.23
2019-04-23T14:15:19.555Z,95781.33
2019-04-23T14:18:02.901Z,95778.44
2019-04-23T14:20:15.290Z,95783.65
2019-04-23T14:25:15.952Z,95777.06
2019-04-23T14:27:58.277Z,95787.48
2019-04-23T14:30:20.180Z,95784.59
2019-04-23T14:32:46.887Z,95785.58
2019-04-23T14:38:01.917Z,95790.03
2019-04-23T14:40:22.181Z,95787.71
2019-04-23T14:45:31.256Z,95798.76
2019-04-23T14:48:00.742Z,95787.92
2019-04-23T14:50:34.912Z,95794.09
2019-04-23T14:53:06.776Z,95790.62
2019-04-23T14:58:14.981Z,95794.30
2019-04-23T15:03:04.421Z,95796.80
2019-04-23T15:05:25.757Z,95792.38
2019-04-23T15:07:58.504Z,95796.44
2019-04-23T15:13:03.330Z,95792.73
2019-04-23T15:15:26.778Z,95786.56
2019-04-23T15:17:59.699Z,95783.45
2019-04-23T15:23:13.909Z,95773.95
2019-04-23T15:25:36.962Z,95778.02
2019-04-23T15:30:24.999Z,95774.95
2019-04-23T15:33:11.684Z,95785.00
2019-04-23T15:35:31.628Z,95787.50
2019-04-23T15:40:25.310Z,95782.69
2019-04-23T15:43:02.796Z,95781.70
2019-04-23T15:45:21.042Z,95786.75
2019-04-23T15:48:00.959Z,95784.80
2019-04-23T15:50:28.335Z,95784.61
2019-04-23T15:52:56.237Z,95786.55
2019-04-23T15:55:20.835Z,95793.50
2019-04-23T16:00:22.407Z,95785.58
2019-04-23T16:02:26.196Z,95793.13
2019-04-23T16:04:54.083Z,95793.48
2019-04-23T16:07:43.544Z,95797.75
2019-04-23T16:10:22.245Z,95804.34
2019-04-23T16:12:53.197Z,95798.73
2019-04-23T16:15:21.985Z,95800.67
2019-04-23T16:18:04.047Z,95790.61
2019-04-23T16:20:37.321Z,95797.38
2019-04-23T16:22:57.751Z,95803.77
2019-04-23T16:25:31.693Z,95812.07
2019-04-23T16:28:02.208Z,95810.72
2019-04-23T16:30:53.665Z,95812.28
2019-04-23T16:33:08.870Z,95808.61
2019-04-23T16:35:43.996Z,95809.39
2019-04-23T16:40:37.506Z,95811.70
2019-04-23T16:43:12.863Z,95809.38
2019-04-23T16:45:37.110Z,95817.51
2019-04-23T16:48:25.929Z,95813.62
2019-04-23T16:50:56.199Z,95816.73
2019-04-23T16:53:19.675Z,95814.23
2019-04-23T16:58:23.204Z,95820.22
2019-04-23T17:00:52.962Z,95814.98
2019-04-23T17:05:46.565Z,95818.86
2019-04-23T17:10:42.840Z,95814.80
2019-04-23T17:13:24.158Z,95811.52
2019-04-23T17:15:51.028Z,95815.97
2019-04-23T17:18:11.640Z,95823.50
2019-04-23T17:20:43.408Z,95823.31
2019-04-23T17:23:16.873Z,95821.57
2019-04-23T17:25:45.103Z,95824.67
2019-04-23T17:28:17.315Z,95825.06
2019-04-23T17:30:41.288Z,95825.64
2019-04-23T17:33:18.862Z,95834.94
2019-04-23T17:36:12.086Z,95830.67
2019-04-23T17:38:37.920Z,95835.12
2019-04-23T17:41:13.678Z,95827.77
2019-04-23T17:43:47.060Z,95827.77
2019-04-23T17:46:08.883Z,95821.75
2019-04-23T17:48:34.665Z,95826.03
2019-04-23T17:51:19.881Z,95826.60
2019-04-23T17:53:43.018Z,95831.05
2019-04-23T17:58:54.399Z,95836.87
2019-04-23T18:06:23.555Z,95832.98
2019-04-23T18:08:41.323Z,95835.50
2019-04-23T18:11:17.993Z,95752.18
2019-04-23T18:13:43.313Z,95829.70
2019-04-23T18:18:45.036Z,95837.05
2019-04-23T18:21:32.879Z,95847.87
2019-04-23T18:24:23.058Z,95835.69
2019-04-23T18:27:04.961Z,95847.70
2019-04-23T18:29:42.060Z,95853.69
2019-04-23T18:32:15.074Z,95860.09
2019-04-23T18:34:56.259Z,95865.89
2019-04-23T18:37:12.117Z,95862.80
2019-04-23T18:39:42.114Z,95866.09
2019-04-23T18:44:42.059Z,95863.37
2019-04-23T18:47:07.554Z,95865.89
2019-04-23T18:49:41.028Z,95866.08
2019-04-23T18:52:04.709Z,95864.34
2019-04-23T18:54:32.937Z,95867.25
2019-04-23T19:02:26.084Z,95879.61
2019-04-23T19:07:42.617Z,95887.55
2019-04-23T19:10:28.826Z,95892.75
2019-04-23T19:20:58.670Z,95910.95
2019-04-23T19:23:13.678Z,95910.73
2019-04-23T19:25:31.631Z,95914.63
2019-04-23T19:28:24.150Z,95917.91
2019-04-23T19:33:25.353Z,95914.25
2019-04-23T19:38:21.389Z,95915.00
2019-04-23T19:40:52.007Z,95876.31
2019-04-23T19:43:15.255Z,95909.80
2019-04-23T19:45:53.085Z,95917.73
2019-04-23T19:48:17.453Z,95918.52
2019-04-23T19:51:08.868Z,95919.09
2019-04-23T19:54:06.086Z,95918.33
2019-04-23T20:03:43.790Z,95914.25
2019-04-23T20:06:13.542Z,95914.84
2019-04-23T20:13:52.693Z,95869.14
2019-04-23T20:16:21.183Z,95921.98
2019-04-23T20:21:03.237Z,95923.34
2019-04-23T20:36:49.330Z,95931.27
2019-04-23T20:44:57.134Z,95932.77
2019-04-23T20:52:08.870Z,95927.55
2019-04-23T21:00:32.596Z,95924.27
2019-04-23T21:03:25.823Z,95926.02
2019-04-23T21:05:27.975Z,95934.31
2019-04-23T21:08:12.244Z,95935.87
2019-04-23T21:13:50.525Z,95930.45
2019-04-23T21:15:58.245Z,95845.45
2019-04-23T21:18:37.345Z,95934.52
2019-04-23T21:20:56.898Z,95937.60
2019-04-23T21:23:32.325Z,95939.36
2019-04-23T21:26:07.940Z,95939.14
2019-04-23T21:28:40.138Z,95947.66
2019-04-23T21:31:06.542Z,95943.98
2019-04-23T21:36:25.614Z,95948.62
2019-04-23T21:39:15.382Z,95940.50
2019-04-23T21:44:11.914Z,95943.97
2019-04-23T21:49:31.956Z,95955.39
2019-04-23T21:51:50.839Z,95955.02
2019-04-23T21:54:04.938Z,95943.59
2019-04-23T21:56:42.944Z,95954.41
2019-04-23T22:06:59.680Z,95954.61
2019-04-23T22:09:34.584Z,95957.31
2019-04-23T22:12:03.902Z,95964.06
2019-04-23T22:17:09.842Z,95958.44
2019-04-23T22:19:42.169Z,95959.61
2019-04-23T22:24:32.178Z,95962.50
2019-04-23T22:27:02.857Z,95966.38
2019-04-23T22:29:39.104Z,95965.99
2019-04-23T22:31:58.242Z,95959.03
2019-04-23T22:34:40.284Z,95962.13
2019-04-23T22:37:11.095Z,95971.59
2019-04-23T22:42:22.450Z,95971.00
2019-04-23T22:44:51.545Z,95970.81
2019-04-23T22:47:07.205Z,95969.44
2019-04-23T22:52:22.438Z,95973.31
2019-04-23T22:54:57.096Z,95971.36
2019-04-23T22:57:50.292Z,95970.58
2019-04-23T23:00:14.350Z,95969.23
2019-04-23T23:02:58.332Z,95976.97
2019-04-23T23:05:37.464Z,95974.65
2019-04-23T23:08:01.484Z,95978.08
2019-04-23T23:10:44.209Z,95972.30
2019-04-23T23:13:04.087Z,95971.89
2019-04-23T23:18:14.004Z,95964.53
2019-04-23T23:20:47.927Z,95959.31
2019-04-23T23:26:02.860Z,95956.23
2019-04-23T23:35:44.427Z,95952.73
2019-04-23T23:38:17.721Z,95957.20
2019-04-23T23:40:47.185Z,95955.66
2019-04-23T23:43:23.474Z,95953.12
2019-04-23T23:48:12.787Z,95958.53
2019-04-23T23:56:05.150Z,95965.67
